Latest Coastal Weather Observations for Noarlunga

IDS60701

Issued at 10:21 pm CDT Friday 20 January 2017 (issued every 10 minutes, with the page automatically refreshed every 10 minutes)

About coastal observations | Map of coastal stations | Coastal observations for SA | Marine services | Other Formats
Station Details ID: 023885 Name: NOARLUNGA Lat: -35.16 Lon: 138.51 Height: 55.0 m
Data from the previous 72 hours. | See also: Recent months at Noarlunga
Date/Time
CDT
Temp
°C
Wind Pressure Rain since
9am
mm
Weather Cloud Vis
km
Sea
Height
m
Swell
Dir  Spd
kts
Gust
kts
hPa Trend Height
m
Period
s
Dir
20/10:00pm 15.6 SSE 5 6 - - 0.2 - - - - - - -
20/09:30pm 16.0 S 7 9 - - 0.2 - - - - - - -
20/09:00pm 16.4 SSE 7 11 - - 0.2 - - - - - - -
20/08:30pm 16.9 SSE 11 15 - - 0.2 - - - - - - -
20/08:00pm 17.8 SSE 9 14 - - 0.2 - - - - - - -
20/07:30pm 18.4 SSE 12 18 - - 0.2 - - - - - - -
20/07:00pm 19.3 S 11 15 - - 0.2 - - - - - - -
20/06:30pm 19.6 SSE 12 16 - - 0.2 - - - - - - -
20/06:00pm 20.3 SSE 12 17 - - 0.2 - - - - - - -
20/05:30pm 20.3 SSE 14 20 - - 0.2 - - - - - - -
20/05:00pm 22.2 SSE 12 17 - - 0.2 - - - - - - -
20/04:30pm 21.2 S 10 17 - - 0.2 - - - - - - -
20/04:00pm 21.7 SSE 11 17 - - 0.2 - - - - - - -
20/03:30pm 22.1 S 11 17 - - 0.2 - - - - - - -
20/03:00pm 21.3 SSE 11 17 - - 0.2 Recent precip. - - - - - -
20/02:30pm 21.1 SSE 10 17 - - 0.2 - - - - - - -
20/02:00pm 21.8 S 11 17 - - 0.0 - - - - - - -
20/01:30pm 21.5 S 12 17 - - 0.0 - - - - - - -
20/01:00pm 21.3 SSE 11 18 - - 0.0 - - - - - - -
20/12:30pm 19.9 SSE 13 19 - - 0.0 - - - - - - -
20/12:00pm 19.2 SSE 12 17 - - 0.0 - - - - - - -
20/11:30am 18.6 SSE 14 20 - - 0.0 - - - - - - -
20/11:00am 18.5 SSW 9 16 - - 0.0 - - - - - - -
20/10:30am 18.1 S 11 19 - - 0.0 - - - - - - -
20/10:00am 17.4 S 10 18 - - 0.0 - - - - - - -
20/09:30am 17.7 S 10 18 - - 0.0 - - - - - - -
20/09:00am 17.6 S 11 16 - - 13.0 - - - - - - -
20/08:30am 17.6 SSW 8 12 - - 13.0 - - - - - - -
20/08:00am 17.6 SSW 8 12 - - 13.0 - - - - - - -
20/07:30am 17.5 SSW 8 16 - - 13.0 - - - - - - -
20/07:00am 17.6 SSW 9 15 - - 13.0 - - - - - - -
20/06:30am 17.9 SSW 10 16 - - 13.0 - - - - - - -
20/06:00am 17.9 SW 12 20 - - 13.0 - - - - - - -
20/05:30am 18.4 SW 11 19 - - 13.0 - - - - - - -
20/05:00am 18.5 SW 12 22 - - 13.0 - - - - - - -
20/04:30am 19.5 W 4 8 - - 13.0 - - - - - - -
20/04:00am 19.3 WNW 2 3 - - 13.0 - - - - - - -
20/03:30am 19.0 CALM 0 0 - - 13.0 - - - - - - -
20/03:00am 19.0 SSE 2 4 - - 12.8 - - - - - - -
20/02:30am 18.7 ENE 3 7 - - 12.8 - - - - - - -
20/02:00am 18.1 ENE 9 12 - - 12.8 - - - - - - -
20/01:30am 18.0 ESE 10 16 - - 12.6 - - - - - - -
20/01:00am 18.0 E 9 16 - - 10.4 - - - - - - -
20/12:30am 18.4 S 7 12 - - 7.6 - - - - - - -
20/12:00am 19.5 S 6 13 - - 6.2 Rain - - - - - -
 
Date/Time
CDT
Temp
°C
Wind Pressure Rain since
9am
mm
Weather Cloud Vis
km
Sea
Height
m
Swell
Dir  Spd
kts
Gust
kts
hPa Trend Height
m
Period
s
Dir
19/11:30pm 20.7 WNW 2 4 - - 4.0 - - - - - - -
19/11:00pm 21.4 WNW 5 8 - - 1.6 - - - - - - -
19/10:30pm 23.1 NW 7 11 - - 1.4 - - - - - - -
19/10:00pm 23.9 N 8 11 - - 1.4 - - - - - - -
19/09:30pm 24.1 N 12 18 - - 1.4 - - - - - - -
19/09:00pm 23.9 NNW 14 30 - - 1.4 Rain - - - - - -
19/08:39pm 27.5 NNW 14 35 - - 0.0 - - - - - - -
19/08:36pm 33.1 N 11 35 - - 0.0 - - - - - - -
19/08:30pm 34.3 NNE 7 10 - - 0.0 - - - - - - -
19/08:00pm 35.0 NE 7 12 - - 0.0 - - - - - - -
19/07:30pm 35.6 N 4 8 - - 0.0 - - - - - - -
19/07:00pm 36.8 WNW 5 8 - - 0.0 - - - - - - -
19/06:30pm 36.6 NNW 5 7 - - 0.0 - - - - - - -
19/06:00pm 37.2 NNW 5 8 - - 0.0 - - - - - - -
19/05:30pm 36.5 N 6 11 - - 0.0 - - - - - - -
19/05:00pm 37.0 N 6 11 - - 0.0 - - - - - - -
19/04:30pm 36.1 N 8 14 - - 0.0 - - - - - - -
19/04:00pm 35.8 NNW 8 14 - - 0.0 - - - - - - -
19/03:30pm 35.5 N 8 14 - - 0.0 - - - - - - -
19/03:00pm 35.1 NE 5 9 - - 0.0 - - - - - - -
19/02:30pm 34.5 NNE 6 11 - - 0.0 - - - - - - -
19/02:00pm 32.3 E 6 11 - - 0.0 - - - - - - -
19/01:30pm 29.7 E 8 13 - - 0.0 - - - - - - -
19/01:00pm 28.3 ESE 9 13 - - 0.0 - - - - - - -
19/12:30pm 28.4 ESE 11 14 - - 0.0 - - - - - - -
19/12:00pm 27.3 ESE 9 12 - - 0.0 - - - - - - -
19/11:30am 25.8 ESE 7 10 - - 0.0 - - - - - - -
19/11:00am 26.4 E 6 8 - - 0.0 - - - - - - -
19/10:30am 25.2 ENE 5 8 - - 0.0 - - - - - - -
19/10:00am 23.7 E 5 9 - - 0.0 - - - - - - -
19/09:30am 21.9 ENE 6 9 - - 0.0 - - - - - - -
19/09:00am 20.6 ENE 8 13 - - - - - - - - - -
19/08:30am 19.9 ENE 12 19 - - - - - - - - - -
19/08:00am 19.1 E 12 21 - - - - - - - - - -
19/07:30am 18.6 E 12 20 - - - - - - - - - -
19/07:00am 18.2 E 12 19 - - - - - - - - - -
19/06:30am 17.7 E 14 22 - - - - - - - - - -
19/06:00am 17.6 E 13 19 - - - - - - - - - -
19/05:30am 17.6 E 15 22 - - - - - - - - - -
19/05:00am 17.9 E 13 23 - - - - - - - - - -
19/04:30am 17.8 E 14 23 - - - - - - - - - -
19/04:00am 17.7 ESE 14 23 - - - - - - - - - -
19/03:30am 17.6 ESE 15 26 - - - - - - - - - -
19/03:21am 17.6 ESE 15 26 - - - - - - - - - -
19/03:00am 17.5 ESE 13 20 - - 0.0 - - - - - - -
19/02:30am 17.4 ESE 9 17 - - - - - - - - - -
19/02:00am 17.5 ESE 8 15 - - - - - - - - - -
19/01:30am 17.4 E 5 12 - - - - - - - - - -
19/01:00am 17.4 ESE 9 14 - - - - - - - - - -
19/12:30am 17.2 ESE 11 19 - - - - - - - - - -
19/12:00am 17.2 ESE 11 16 - - - - - - - - - -
 
Date/Time
CDT
Temp
°C
Wind Pressure Rain since
9am
mm
Weather Cloud Vis
km
Sea
Height
m
Swell
Dir  Spd
kts
Gust
kts
hPa Trend Height
m
Period
s
Dir
18/11:30pm 17.3 ESE 9 16 - - - - - - - - - -
18/11:00pm 17.3 ESE 13 20 - - - - - - - - - -
18/10:30pm 17.4 ESE 12 19 - - - - - - - - - -
18/10:00pm 17.5 SE 15 21 - - - - - - - - - -
18/09:30pm 17.6 SE 15 22 - - - - - - - - - -
18/09:00pm 17.8 SE 17 25 - - 0.0 - - - - - - -
18/08:30pm 18.1 SE 15 25 - - - - - - - - - -
18/08:00pm 18.4 SE 12 19 - - - - - - - - - -
18/07:30pm 19.2 SE 13 20 - - - - - - - - - -
18/07:00pm 19.7 SE 13 19 - - - - - - - - - -
18/06:30pm 20.1 SE 15 20 - - - - - - - - - -
18/06:00pm 21.0 SE 12 18 - - - - - - - - - -
18/05:30pm 21.1 SE 16 21 - - - - - - - - - -
18/05:00pm 21.9 SE 14 19 - - - - - - - - - -
18/04:30pm 22.6 SE 14 19 - - - - - - - - - -
18/04:00pm 23.3 SE 14 19 - - - - - - - - - -
18/03:30pm 23.1 SE 13 19 - - - - - - - - - -
18/03:00pm 23.3 SSE 16 23 - - - - - - - - - -
18/02:30pm 22.8 SE 15 22 - - - - - - - - - -
18/02:00pm 23.5 ESE 15 23 - - - - - - - - - -
18/01:30pm 23.3 SSE 14 21 - - - - - - - - - -
18/01:00pm 22.4 SE 12 19 - - - - - - - - - -
18/12:30pm 22.1 SE 12 17 - - - - - - - - - -
18/10:00am 19.1 SE 15 22 - - 0.0 - - - - - - -
18/09:30am 18.4 SE 15 21 - - 0.0 - - - - - - -
18/09:00am 18.1 SE 13 22 - - 0.0 - - - - - - -
18/08:30am 17.6 SE 12 17 - - 0.0 - - - - - - -
18/08:00am 17.4 SE 14 22 - - 0.0 - - - - - - -
18/07:30am 17.2 SE 14 21 - - 0.0 - - - - - - -
18/07:00am 16.9 SSE 15 22 - - 0.0 - - - - - - -
18/06:30am 16.9 SSE 14 21 - - 0.0 - - - - - - -
18/06:00am 17.5 SSE 12 21 - - 0.0 - - - - - - -
18/05:30am 17.6 SE 14 21 - - 0.0 - - - - - - -
18/05:00am 17.6 SE 11 16 - - 0.0 - - - - - - -
18/04:30am 17.8 SE 10 17 - - 0.0 - - - - - - -
18/04:00am 17.9 SE 10 16 - - 0.0 - - - - - - -
18/03:30am 17.9 SE 9 13 - - 0.0 - - - - - - -
18/03:00am 18.1 ESE 9 14 - - 0.0 - - - - - - -
18/02:30am 18.3 SE 9 16 - - 0.0 - - - - - - -
18/02:00am 18.4 SSE 7 15 - - 0.0 - - - - - - -
18/01:30am 18.6 ESE 19 27 - - 0.0 - - - - - - -
18/01:00am 19.3 ESE 19 27 - - 0.0 - - - - - - -
18/12:30am 19.5 SE 18 29 - - 0.0 - - - - - - -
18/12:23am 19.6 SE 19 29 - - 0.0 - - - - - - -
18/12:00am 19.8 SE 19 29 - - 0.0 - - - - - - -
 
Date/Time
CDT
Temp
°C
Wind Pressure Rain since
9am
mm
Weather Cloud Vis
km
Sea
Height
m
Swell
Dir  Spd
kts
Gust
kts
hPa Trend Height
m
Period
s
Dir
17/11:50pm 19.9 SE 19 29 - - 0.0 - - - - - - -
17/11:30pm 19.9 SE 19 26 - - 0.0 - - - - - - -
17/11:00pm 20.4 SE 19 30 - - 0.0 - - - - - - -
17/10:30pm 19.5 ESE 20 30 - - 0.0 - - - - - - -

Other Formats:

Comma delimited format used in spreadsheet applications
http://www.bom.gov.au/fwo/IDS60701/IDS60701.94808.axf

JavaScript Object Notation format (JSON) in row-major order
http://www.bom.gov.au/fwo/IDS60701/IDS60701.94808.json